sensor_id;sensor_type;location;lat;lon;timestamp;temperature;humidity
71627;DHT22;59475;52.464;13.590;2023-07-30T00:00:11;16.89;99.32
71627;DHT22;59475;52.464;13.590;2023-07-30T00:02:36;16.84;99.24
71627;DHT22;59475;52.464;13.590;2023-07-30T00:05:01;16.77;99.04
71627;DHT22;59475;52.464;13.590;2023-07-30T00:10:48;16.71;99.36
71627;DHT22;59475;52.464;13.590;2023-07-30T00:13:14;16.66;99.30
71627;DHT22;59475;52.464;13.590;2023-07-30T00:15:40;16.65;99.32
71627;DHT22;59475;52.464;13.590;2023-07-30T00:18:05;16.64;99.37
71627;DHT22;59475;52.464;13.590;2023-07-30T00:20:30;16.62;99.18
71627;DHT22;59475;52.464;13.590;2023-07-30T00:22:56;16.59;99.20
71627;DHT22;59475;52.464;13.590;2023-07-30T00:25:21;16.56;99.03
71627;DHT22;59475;52.464;13.590;2023-07-30T00:27:47;16.48;98.90
71627;DHT22;59475;52.464;13.590;2023-07-30T00:30:12;16.44;99.02
71627;DHT22;59475;52.464;13.590;2023-07-30T00:32:38;16.42;99.21
71627;DHT22;59475;52.464;13.590;2023-07-30T00:35:09;16.38;99.21
71627;DHT22;59475;52.464;13.590;2023-07-30T00:37:34;16.37;99.30
71627;DHT22;59475;52.464;13.590;2023-07-30T00:40:00;16.37;99.15
71627;DHT22;59475;52.464;13.590;2023-07-30T00:42:26;16.32;99.14
71627;DHT22;59475;52.464;13.590;2023-07-30T00:44:51;16.31;99.05
71627;DHT22;59475;52.464;13.590;2023-07-30T00:47:17;16.29;99.27
71627;DHT22;59475;52.464;13.590;2023-07-30T00:49:42;16.25;99.11
71627;DHT22;59475;52.464;13.590;2023-07-30T00:52:08;16.21;99.11
71627;DHT22;59475;52.464;13.590;2023-07-30T00:54:33;16.24;99.49
71627;DHT22;59475;52.464;13.590;2023-07-30T00:56:59;16.21;99.40
71627;DHT22;59475;52.464;13.590;2023-07-30T00:59:25;16.17;99.31
71627;DHT22;59475;52.464;13.590;2023-07-30T01:01:51;16.11;99.26
71627;DHT22;59475;52.464;13.590;2023-07-30T01:04:17;16.04;99.14
71627;DHT22;59475;52.464;13.590;2023-07-30T01:06:43;15.99;99.02
71627;DHT22;59475;52.464;13.590;2023-07-30T01:09:09;15.91;98.90
71627;DHT22;59475;52.464;13.590;2023-07-30T01:11:36;15.86;99.41
71627;DHT22;59475;52.464;13.590;2023-07-30T01:14:03;15.79;99.65
71627;DHT22;59475;52.464;13.590;2023-07-30T01:16:29;15.73;99.50
71627;DHT22;59475;52.464;13.590;2023-07-30T01:18:54;15.73;99.27
71627;DHT22;59475;52.464;13.590;2023-07-30T01:21:19;15.67;99.20
71627;DHT22;59475;52.464;13.590;2023-07-30T01:23:45;15.62;99.05
71627;DHT22;59475;52.464;13.590;2023-07-30T01:26:12;15.56;99.35
71627;DHT22;59475;52.464;13.590;2023-07-30T01:28:43;15.55;99.28
71627;DHT22;59475;52.464;13.590;2023-07-30T01:31:14;15.51;99.67
71627;DHT22;59475;52.464;13.590;2023-07-30T01:33:41;15.58;99.87
71627;DHT22;59475;52.464;13.590;2023-07-30T01:36:08;15.61;99.99
71627;DHT22;59475;52.464;13.590;2023-07-30T01:38:37;15.62;99.95
71627;DHT22;59475;52.464;13.590;2023-07-30T01:44:25;15.48;99.56
71627;DHT22;59475;52.464;13.590;2023-07-30T01:46:50;15.49;99.81
71627;DHT22;59475;52.464;13.590;2023-07-30T01:49:15;15.51;99.86
71627;DHT22;59475;52.464;13.590;2023-07-30T01:51:41;15.53;99.86
71627;DHT22;59475;52.464;13.590;2023-07-30T01:54:06;15.51;99.81
71627;DHT22;59475;52.464;13.590;2023-07-30T01:56:31;15.49;99.65
71627;DHT22;59475;52.464;13.590;2023-07-30T01:58:57;15.49;99.94
71627;DHT22;59475;52.464;13.590;2023-07-30T02:01:22;15.46;99.72
71627;DHT22;59475;52.464;13.590;2023-07-30T02:03:48;15.39;99.58
71627;DHT22;59475;52.464;13.590;2023-07-30T02:06:13;15.36;99.53
71627;DHT22;59475;52.464;13.590;2023-07-30T02:08:38;15.30;99.60
71627;DHT22;59475;52.464;13.590;2023-07-30T02:11:04;15.25;99.54
71627;DHT22;59475;52.464;13.590;2023-07-30T02:13:29;15.20;99.53
71627;DHT22;59475;52.464;13.590;2023-07-30T02:15:54;15.17;99.50
71627;DHT22;59475;52.464;13.590;2023-07-30T02:18:20;15.14;99.40
71627;DHT22;59475;52.464;13.590;2023-07-30T02:20:45;15.08;99.31
71627;DHT22;59475;52.464;13.590;2023-07-30T02:23:11;15.06;99.24
71627;DHT22;59475;52.464;13.590;2023-07-30T02:25:37;15.00;99.09
71627;DHT22;59475;52.464;13.590;2023-07-30T02:28:03;14.94;98.97
71627;DHT22;59475;52.464;13.590;2023-07-30T02:30:29;14.88;99.07
71627;DHT22;59475;52.464;13.590;2023-07-30T02:32:54;14.88;99.20
71627;DHT22;59475;52.464;13.590;2023-07-30T02:35:19;14.91;99.28
71627;DHT22;59475;52.464;13.590;2023-07-30T02:37:45;14.98;99.85
71627;DHT22;59475;52.464;13.590;2023-07-30T02:40:10;15.00;99.80
71627;DHT22;59475;52.464;13.590;2023-07-30T02:42:36;14.94;99.74
71627;DHT22;59475;52.464;13.590;2023-07-30T02:45:02;14.94;99.61
71627;DHT22;59475;52.464;13.590;2023-07-30T02:47:27;14.88;99.34
71627;DHT22;59475;52.464;13.590;2023-07-30T02:49:53;14.87;99.37
71627;DHT22;59475;52.464;13.590;2023-07-30T02:52:18;14.86;99.27
71627;DHT22;59475;52.464;13.590;2023-07-30T02:54:43;14.81;99.28
71627;DHT22;59475;52.464;13.590;2023-07-30T02:57:09;14.84;99.58
71627;DHT22;59475;52.464;13.590;2023-07-30T02:59:35;14.98;99.99
71627;DHT22;59475;52.464;13.590;2023-07-30T03:02:02;15.11;99.99
71627;DHT22;59475;52.464;13.590;2023-07-30T03:04:29;15.17;99.99
71627;DHT22;59475;52.464;13.590;2023-07-30T03:06:54;15.20;99.99
71627;DHT22;59475;52.464;13.590;2023-07-30T03:09:20;15.24;99.99
71627;DHT22;59475;52.464;13.590;2023-07-30T03:11:45;15.28;99.99
71627;DHT22;59475;52.464;13.590;2023-07-30T03:14:11;15.23;99.99
71627;DHT22;59475;52.464;13.590;2023-07-30T03:16:36;15.18;99.99
71627;DHT22;59475;52.464;13.590;2023-07-30T03:19:01;15.17;99.99
71627;DHT22;59475;52.464;13.590;2023-07-30T03:21:27;15.10;99.99
71627;DHT22;59475;52.464;13.590;2023-07-30T03:23:52;15.07;99.99
71627;DHT22;59475;52.464;13.590;2023-07-30T03:26:17;15.04;99.99
71627;DHT22;59475;52.464;13.590;2023-07-30T03:28:43;15.01;99.99
71627;DHT22;59475;52.464;13.590;2023-07-30T03:31:08;14.97;99.99
71627;DHT22;59475;52.464;13.590;2023-07-30T03:33:33;14.96;99.99
71627;DHT22;59475;52.464;13.590;2023-07-30T03:36:00;14.93;99.99
71627;DHT22;59475;52.464;13.590;2023-07-30T03:38:25;14.97;99.99
71627;DHT22;59475;52.464;13.590;2023-07-30T03:40:50;15.01;99.99
71627;DHT22;59475;52.464;13.590;2023-07-30T03:43:16;15.01;99.99
71627;DHT22;59475;52.464;13.590;2023-07-30T03:45:41;15.01;99.99
71627;DHT22;59475;52.464;13.590;2023-07-30T03:48:06;15.03;99.99
71627;DHT22;59475;52.464;13.590;2023-07-30T03:50:32;15.08;99.99
71627;DHT22;59475;52.464;13.590;2023-07-30T03:52:57;15.21;99.99
71627;DHT22;59475;52.464;13.590;2023-07-30T03:55:23;15.30;99.99
71627;DHT22;59475;52.464;13.590;2023-07-30T03:57:49;15.32;99.99
71627;DHT22;59475;52.464;13.590;2023-07-30T04:00:14;15.45;99.99
71627;DHT22;59475;52.464;13.590;2023-07-30T04:02:40;15.48;99.99
71627;DHT22;59475;52.464;13.590;2023-07-30T04:05:05;15.48;99.99
71627;DHT22;59475;52.464;13.590;2023-07-30T04:07:31;15.51;99.99
71627;DHT22;59475;52.464;13.590;2023-07-30T04:09:56;15.51;99.99
71627;DHT22;59475;52.464;13.590;2023-07-30T04:12:22;15.55;99.99
71627;DHT22;59475;52.464;13.590;2023-07-30T04:14:47;15.58;99.99
71627;DHT22;59475;52.464;13.590;2023-07-30T04:17:13;15.63;99.99
71627;DHT22;59475;52.464;13.590;2023-07-30T04:19:38;15.67;99.99
71627;DHT22;59475;52.464;13.590;2023-07-30T04:22:03;15.72;99.99
71627;DHT22;59475;52.464;13.590;2023-07-30T04:24:29;15.79;99.99
71627;DHT22;59475;52.464;13.590;2023-07-30T04:26:54;15.85;99.99
71627;DHT22;59475;52.464;13.590;2023-07-30T04:29:20;15.87;99.99
71627;DHT22;59475;52.464;13.590;2023-07-30T04:31:45;15.93;99.85
71627;DHT22;59475;52.464;13.590;2023-07-30T04:34:10;15.93;99.48
71627;DHT22;59475;52.464;13.590;2023-07-30T04:36:36;15.97;99.18
71627;DHT22;59475;52.464;13.590;2023-07-30T04:39:01;15.99;99.19
71627;DHT22;59475;52.464;13.590;2023-07-30T04:41:27;15.99;98.98
71627;DHT22;59475;52.464;13.590;2023-07-30T04:47:13;16.11;98.77
71627;DHT22;59475;52.464;13.590;2023-07-30T04:49:39;16.11;98.79
71627;DHT22;59475;52.464;13.590;2023-07-30T04:52:06;16.14;98.76
71627;DHT22;59475;52.464;13.590;2023-07-30T04:54:32;16.17;98.62
71627;DHT22;59475;52.464;13.590;2023-07-30T04:56:57;16.25;98.30
71627;DHT22;59475;52.464;13.590;2023-07-30T04:59:23;16.27;98.02
71627;DHT22;59475;52.464;13.590;2023-07-30T05:01:48;16.29;97.86
71627;DHT22;59475;52.464;13.590;2023-07-30T05:04:13;16.37;97.27
71627;DHT22;59475;52.464;13.590;2023-07-30T05:06:39;16.38;97.24
71627;DHT22;59475;52.464;13.590;2023-07-30T05:09:04;16.41;97.05
71627;DHT22;59475;52.464;13.590;2023-07-30T05:11:30;16.45;96.96
71627;DHT22;59475;52.464;13.590;2023-07-30T05:13:55;16.49;96.50
71627;DHT22;59475;52.464;13.590;2023-07-30T05:16:21;16.52;96.93
71627;DHT22;59475;52.464;13.590;2023-07-30T05:18:46;16.58;96.89
71627;DHT22;59475;52.464;13.590;2023-07-30T05:21:12;16.68;96.08
71627;DHT22;59475;52.464;13.590;2023-07-30T05:23:37;16.71;96.29
71627;DHT22;59475;52.464;13.590;2023-07-30T05:26:03;16.77;96.24
71627;DHT22;59475;52.464;13.590;2023-07-30T05:28:28;16.86;95.25
71627;DHT22;59475;52.464;13.590;2023-07-30T05:34:15;17.04;95.48
71627;DHT22;59475;52.464;13.590;2023-07-30T05:36:40;17.14;94.68
71627;DHT22;59475;52.464;13.590;2023-07-30T05:39:06;17.28;94.68
71627;DHT22;59475;52.464;13.590;2023-07-30T05:41:31;17.31;94.47
71627;DHT22;59475;52.464;13.590;2023-07-30T05:43:57;17.44;94.84
71627;DHT22;59475;52.464;13.590;2023-07-30T05:46:22;17.52;94.18
71627;DHT22;59475;52.464;13.590;2023-07-30T05:48:47;17.61;94.27
71627;DHT22;59475;52.464;13.590;2023-07-30T05:51:13;17.71;92.76
71627;DHT22;59475;52.464;13.590;2023-07-30T05:53:38;17.79;91.71
71627;DHT22;59475;52.464;13.590;2023-07-30T05:56:03;17.86;92.09
71627;DHT22;59475;52.464;13.590;2023-07-30T05:58:29;17.96;91.45
71627;DHT22;59475;52.464;13.590;2023-07-30T06:00:54;18.09;91.54
71627;DHT22;59475;52.464;13.590;2023-07-30T06:03:19;18.22;91.44
71627;DHT22;59475;52.464;13.590;2023-07-30T06:05:45;18.27;90.02
71627;DHT22;59475;52.464;13.590;2023-07-30T06:08:10;18.34;89.80
71627;DHT22;59475;52.464;13.590;2023-07-30T06:10:37;18.48;91.06
71627;DHT22;59475;52.464;13.590;2023-07-30T06:13:05;18.67;91.98
71627;DHT22;59475;52.464;13.590;2023-07-30T06:15:31;18.67;89.79
71627;DHT22;59475;52.464;13.590;2023-07-30T06:17:57;18.76;91.03
71627;DHT22;59475;52.464;13.590;2023-07-30T06:20:22;18.89;90.28
71627;DHT22;59475;52.464;13.590;2023-07-30T06:26:09;19.19;89.62
71627;DHT22;59475;52.464;13.590;2023-07-30T06:28:35;19.40;89.00
71627;DHT22;59475;52.464;13.590;2023-07-30T06:31:03;19.57;88.17
71627;DHT22;59475;52.464;13.590;2023-07-30T06:33:29;19.77;86.95
71627;DHT22;59475;52.464;13.590;2023-07-30T06:35:55;19.96;86.50
71627;DHT22;59475;52.464;13.590;2023-07-30T06:38:20;20.16;87.08
71627;DHT22;59475;52.464;13.590;2023-07-30T06:40:46;20.27;84.53
71627;DHT22;59475;52.464;13.590;2023-07-30T06:43:12;20.26;86.20
71627;DHT22;59475;52.464;13.590;2023-07-30T06:45:37;20.10;84.23
71627;DHT22;59475;52.464;13.590;2023-07-30T06:48:02;20.00;84.19
71627;DHT22;59475;52.464;13.590;2023-07-30T06:50:28;19.78;84.16
71627;DHT22;59475;52.464;13.590;2023-07-30T06:52:53;19.79;85.55
71627;DHT22;59475;52.464;13.590;2023-07-30T06:55:18;19.77;84.98
71627;DHT22;59475;52.464;13.590;2023-07-30T06:57:44;19.78;85.31
71627;DHT22;59475;52.464;13.590;2023-07-30T07:00:10;19.86;85.32
71627;DHT22;59475;52.464;13.590;2023-07-30T07:05:57;20.22;85.56
71627;DHT22;59475;52.464;13.590;2023-07-30T07:08:23;20.36;83.82
71627;DHT22;59475;52.464;13.590;2023-07-30T07:10:49;20.50;84.14
71627;DHT22;59475;52.464;13.590;2023-07-30T07:13:14;20.63;82.84
71627;DHT22;59475;52.464;13.590;2023-07-30T07:15:43;20.90;82.34
71627;DHT22;59475;52.464;13.590;2023-07-30T07:18:09;21.25;83.03
71627;DHT22;59475;52.464;13.590;2023-07-30T07:20:35;21.77;79.69
71627;DHT22;59475;52.464;13.590;2023-07-30T07:23:01;22.22;80.24
71627;DHT22;59475;52.464;13.590;2023-07-30T07:25:26;22.39;76.28
71627;DHT22;59475;52.464;13.590;2023-07-30T07:27:51;22.12;77.13
71627;DHT22;59475;52.464;13.590;2023-07-30T07:30:17;22.01;76.55
71627;DHT22;59475;52.464;13.590;2023-07-30T07:32:42;22.01;77.72
71627;DHT22;59475;52.464;13.590;2023-07-30T07:35:08;22.39;79.29
71627;DHT22;59475;52.464;13.590;2023-07-30T07:37:34;22.71;75.03
71627;DHT22;59475;52.464;13.590;2023-07-30T07:39:59;23.31;74.75
71627;DHT22;59475;52.464;13.590;2023-07-30T07:42:25;23.76;72.89
71627;DHT22;59475;52.464;13.590;2023-07-30T07:44:50;23.76;70.94
71627;DHT22;59475;52.464;13.590;2023-07-30T07:50:37;24.14;70.17
71627;DHT22;59475;52.464;13.590;2023-07-30T07:53:03;24.25;69.75
71627;DHT22;59475;52.464;13.590;2023-07-30T07:55:28;24.32;69.47
71627;DHT22;59475;52.464;13.590;2023-07-30T07:57:53;23.79;70.70
71627;DHT22;59475;52.464;13.590;2023-07-30T08:00:19;23.74;71.19
71627;DHT22;59475;52.464;13.590;2023-07-30T08:02:44;23.92;71.20
71627;DHT22;59475;52.464;13.590;2023-07-30T08:05:10;24.00;71.17
71627;DHT22;59475;52.464;13.590;2023-07-30T08:07:35;24.21;70.59
71627;DHT22;59475;52.464;13.590;2023-07-30T08:13:22;24.48;69.09
71627;DHT22;59475;52.464;13.590;2023-07-30T08:15:51;24.10;69.58
71627;DHT22;59475;52.464;13.590;2023-07-30T08:18:16;24.07;69.61
71627;DHT22;59475;52.464;13.590;2023-07-30T08:20:41;23.89;71.35
71627;DHT22;59475;52.464;13.590;2023-07-30T08:23:07;23.94;70.26
71627;DHT22;59475;52.464;13.590;2023-07-30T08:28:54;24.65;68.19
71627;DHT22;59475;52.464;13.590;2023-07-30T08:31:19;25.13;68.14
71627;DHT22;59475;52.464;13.590;2023-07-30T08:33:45;25.09;66.23
71627;DHT22;59475;52.464;13.590;2023-07-30T08:36:10;25.59;65.00
71627;DHT22;59475;52.464;13.590;2023-07-30T08:38:35;25.85;65.30
71627;DHT22;59475;52.464;13.590;2023-07-30T08:41:01;25.41;64.68
71627;DHT22;59475;52.464;13.590;2023-07-30T08:43:26;26.14;65.09
71627;DHT22;59475;52.464;13.590;2023-07-30T08:45:52;26.39;61.03
71627;DHT22;59475;52.464;13.590;2023-07-30T08:48:17;26.26;61.74
71627;DHT22;59475;52.464;13.590;2023-07-30T08:50:43;26.12;61.50
71627;DHT22;59475;52.464;13.590;2023-07-30T08:53:09;26.40;61.25
71627;DHT22;59475;52.464;13.590;2023-07-30T08:55:36;26.71;60.83
71627;DHT22;59475;52.464;13.590;2023-07-30T09:01:29;27.42;58.65
71627;DHT22;59475;52.464;13.590;2023-07-30T09:03:57;27.29;56.65
71627;DHT22;59475;52.464;13.590;2023-07-30T09:06:25;26.00;58.94
71627;DHT22;59475;52.464;13.590;2023-07-30T09:08:50;25.49;60.01
71627;DHT22;59475;52.464;13.590;2023-07-30T09:11:15;25.84;60.10
71627;DHT22;59475;52.464;13.590;2023-07-30T09:13:41;26.29;58.70
71627;DHT22;59475;52.464;13.590;2023-07-30T09:16:14;26.48;57.06
71627;DHT22;59475;52.464;13.590;2023-07-30T09:18:44;26.55;55.53
71627;DHT22;59475;52.464;13.590;2023-07-30T09:21:11;26.31;56.37
71627;DHT22;59475;52.464;13.590;2023-07-30T09:23:45;26.79;54.38
71627;DHT22;59475;52.464;13.590;2023-07-30T09:26:11;26.12;54.63
71627;DHT22;59475;52.464;13.590;2023-07-30T09:28:36;26.86;54.25
71627;DHT22;59475;52.464;13.590;2023-07-30T09:31:07;27.16;53.05
71627;DHT22;59475;52.464;13.590;2023-07-30T09:33:33;27.34;54.06
71627;DHT22;59475;52.464;13.590;2023-07-30T09:36:02;28.29;51.67
71627;DHT22;59475;52.464;13.590;2023-07-30T09:42:00;25.78;56.45
71627;DHT22;59475;52.464;13.590;2023-07-30T09:44:25;25.20;58.10
71627;DHT22;59475;52.464;13.590;2023-07-30T09:46:51;24.44;59.67
71627;DHT22;59475;52.464;13.590;2023-07-30T09:49:17;24.28;60.78
71627;DHT22;59475;52.464;13.590;2023-07-30T09:51:43;24.13;60.24
71627;DHT22;59475;52.464;13.590;2023-07-30T09:54:11;23.93;60.08
71627;DHT22;59475;52.464;13.590;2023-07-30T09:56:37;23.62;60.63
71627;DHT22;59475;52.464;13.590;2023-07-30T09:59:07;23.55;60.32
71627;DHT22;59475;52.464;13.590;2023-07-30T10:01:37;24.01;59.82
71627;DHT22;59475;52.464;13.590;2023-07-30T10:04:07;23.84;57.47
71627;DHT22;59475;52.464;13.590;2023-07-30T10:06:53;24.20;58.21
71627;DHT22;59475;52.464;13.590;2023-07-30T10:09:21;24.47;57.75
71627;DHT22;59475;52.464;13.590;2023-07-30T10:11:51;24.73;56.90
71627;DHT22;59475;52.464;13.590;2023-07-30T10:14:22;25.23;54.55
71627;DHT22;59475;52.464;13.590;2023-07-30T10:16:54;25.55;54.53
71627;DHT22;59475;52.464;13.590;2023-07-30T10:19:26;25.90;54.13
71627;DHT22;59475;52.464;13.590;2023-07-30T10:27:26;27.50;50.03
71627;DHT22;59475;52.464;13.590;2023-07-30T10:30:19;27.55;48.01
71627;DHT22;59475;52.464;13.590;2023-07-30T10:41:09;27.39;47.20
71627;DHT22;59475;52.464;13.590;2023-07-30T10:43:38;27.54;46.20
71627;DHT22;59475;52.464;13.590;2023-07-30T10:46:04;27.74;48.07
71627;DHT22;59475;52.464;13.590;2023-07-30T10:51:52;27.12;48.86
71627;DHT22;59475;52.464;13.590;2023-07-30T10:54:18;27.39;49.00
71627;DHT22;59475;52.464;13.590;2023-07-30T10:56:44;27.15;48.59
71627;DHT22;59475;52.464;13.590;2023-07-30T10:59:12;27.26;47.78
71627;DHT22;59475;52.464;13.590;2023-07-30T11:01:41;27.19;49.26
71627;DHT22;59475;52.464;13.590;2023-07-30T11:04:15;26.96;49.56
71627;DHT22;59475;52.464;13.590;2023-07-30T11:10:02;27.62;46.49
71627;DHT22;59475;52.464;13.590;2023-07-30T11:12:28;28.08;45.71
71627;DHT22;59475;52.464;13.590;2023-07-30T11:15:00;28.39;43.93
71627;DHT22;59475;52.464;13.590;2023-07-30T11:20:47;28.32;45.33
71627;DHT22;59475;52.464;13.590;2023-07-30T11:23:22;28.05;46.97
71627;DHT22;59475;52.464;13.590;2023-07-30T11:25:50;27.97;47.72
71627;DHT22;59475;52.464;13.590;2023-07-30T11:28:35;28.39;45.94
71627;DHT22;59475;52.464;13.590;2023-07-30T11:31:12;28.01;44.75
71627;DHT22;59475;52.464;13.590;2023-07-30T11:33:45;27.82;47.28
71627;DHT22;59475;52.464;13.590;2023-07-30T11:36:16;27.62;45.99
71627;DHT22;59475;52.464;13.590;2023-07-30T11:38:44;28.06;46.62
71627;DHT22;59475;52.464;13.590;2023-07-30T11:41:11;28.04;45.28
71627;DHT22;59475;52.464;13.590;2023-07-30T11:43:38;27.95;44.99
71627;DHT22;59475;52.464;13.590;2023-07-30T11:49:25;26.68;46.15
71627;DHT22;59475;52.464;13.590;2023-07-30T11:51:50;26.99;48.03
71627;DHT22;59475;52.464;13.590;2023-07-30T11:57:39;28.42;44.72
71627;DHT22;59475;52.464;13.590;2023-07-30T12:03:27;28.56;43.08
71627;DHT22;59475;52.464;13.590;2023-07-30T12:05:52;28.64;45.16
71627;DHT22;59475;52.464;13.590;2023-07-30T12:11:53;28.37;43.75
71627;DHT22;59475;52.464;13.590;2023-07-30T12:14:21;28.57;45.64
71627;DHT22;59475;52.464;13.590;2023-07-30T12:16:47;28.54;44.25
71627;DHT22;59475;52.464;13.590;2023-07-30T12:19:12;28.26;44.89
71627;DHT22;59475;52.464;13.590;2023-07-30T12:25:00;27.65;47.69
71627;DHT22;59475;52.464;13.590;2023-07-30T12:27:26;27.34;46.67
71627;DHT22;59475;52.464;13.590;2023-07-30T12:33:13;27.02;45.40
71627;DHT22;59475;52.464;13.590;2023-07-30T12:35:39;26.82;46.46
71627;DHT22;59475;52.464;13.590;2023-07-30T12:38:04;26.79;45.57
71627;DHT22;59475;52.464;13.590;2023-07-30T12:40:30;26.71;44.64
71627;DHT22;59475;52.464;13.590;2023-07-30T12:46:20;27.09;47.18
71627;DHT22;59475;52.464;13.590;2023-07-30T12:52:07;27.30;47.24
71627;DHT22;59475;52.464;13.590;2023-07-30T12:54:33;27.17;46.64
71627;DHT22;59475;52.464;13.590;2023-07-30T13:00:20;26.45;45.65
71627;DHT22;59475;52.464;13.590;2023-07-30T13:02:45;26.41;46.14
71627;DHT22;59475;52.464;13.590;2023-07-30T13:05:11;26.57;46.99
71627;DHT22;59475;52.464;13.590;2023-07-30T13:07:37;26.60;47.40
71627;DHT22;59475;52.464;13.590;2023-07-30T13:10:06;26.47;45.83
71627;DHT22;59475;52.464;13.590;2023-07-30T13:12:33;26.69;47.27
71627;DHT22;59475;52.464;13.590;2023-07-30T13:14:59;26.58;46.51
71627;DHT22;59475;52.464;13.590;2023-07-30T13:17:24;26.65;47.55
71627;DHT22;59475;52.464;13.590;2023-07-30T13:19:50;26.55;46.47
71627;DHT22;59475;52.464;13.590;2023-07-30T13:25:37;26.17;47.47
71627;DHT22;59475;52.464;13.590;2023-07-30T13:28:03;26.17;48.09
71627;DHT22;59475;52.464;13.590;2023-07-30T13:30:28;25.92;47.34
71627;DHT22;59475;52.464;13.590;2023-07-30T13:32:53;26.09;48.36
71627;DHT22;59475;52.464;13.590;2023-07-30T13:35:19;26.20;46.41
71627;DHT22;59475;52.464;13.590;2023-07-30T13:37:44;26.31;46.65
71627;DHT22;59475;52.464;13.590;2023-07-30T13:40:10;26.37;46.66
71627;DHT22;59475;52.464;13.590;2023-07-30T13:42:35;26.45;44.96
71627;DHT22;59475;52.464;13.590;2023-07-30T13:45:01;26.34;45.93
71627;DHT22;59475;52.464;13.590;2023-07-30T13:47:26;26.50;46.61
71627;DHT22;59475;52.464;13.590;2023-07-30T13:49:51;26.50;46.27
71627;DHT22;59475;52.464;13.590;2023-07-30T13:55:40;26.34;48.08
71627;DHT22;59475;52.464;13.590;2023-07-30T13:58:06;26.17;46.31
71627;DHT22;59475;52.464;13.590;2023-07-30T14:03:53;25.69;47.25
71627;DHT22;59475;52.464;13.590;2023-07-30T14:06:18;25.58;47.56
71627;DHT22;59475;52.464;13.590;2023-07-30T14:08:44;25.57;47.97
71627;DHT22;59475;52.464;13.590;2023-07-30T14:11:09;25.58;47.97
71627;DHT22;59475;52.464;13.590;2023-07-30T14:13:34;25.64;47.55
71627;DHT22;59475;52.464;13.590;2023-07-30T14:16:00;25.44;47.32
71627;DHT22;59475;52.464;13.590;2023-07-30T14:21:47;25.14;47.90
71627;DHT22;59475;52.464;13.590;2023-07-30T14:24:12;25.20;48.22
71627;DHT22;59475;52.464;13.590;2023-07-30T14:26:40;25.17;47.78
71627;DHT22;59475;52.464;13.590;2023-07-30T14:32:27;24.86;48.35
71627;DHT22;59475;52.464;13.590;2023-07-30T14:34:52;24.84;47.49
71627;DHT22;59475;52.464;13.590;2023-07-30T14:37:18;24.79;48.25
71627;DHT22;59475;52.464;13.590;2023-07-30T14:39:43;24.79;48.16
71627;DHT22;59475;52.464;13.590;2023-07-30T14:42:09;24.72;48.26
71627;DHT22;59475;52.464;13.590;2023-07-30T14:44:35;24.61;47.85
71627;DHT22;59475;52.464;13.590;2023-07-30T14:47:01;24.49;48.04
71627;DHT22;59475;52.464;13.590;2023-07-30T14:49:29;24.47;48.66
71627;DHT22;59475;52.464;13.590;2023-07-30T14:51:55;24.13;50.54
71627;DHT22;59475;52.464;13.590;2023-07-30T14:54:20;23.74;53.59
71627;DHT22;59475;52.464;13.590;2023-07-30T14:56:46;22.97;57.58
71627;DHT22;59475;52.464;13.590;2023-07-30T14:59:11;22.61;61.56
71627;DHT22;59475;52.464;13.590;2023-07-30T15:01:36;22.04;65.28
71627;DHT22;59475;52.464;13.590;2023-07-30T15:04:02;21.49;66.78
71627;DHT22;59475;52.464;13.590;2023-07-30T15:06:30;20.94;69.13
71627;DHT22;59475;52.464;13.590;2023-07-30T15:12:17;20.10;74.87
71627;DHT22;59475;52.464;13.590;2023-07-30T15:14:42;20.04;75.33
71627;DHT22;59475;52.464;13.590;2023-07-30T15:17:08;19.83;74.51
71627;DHT22;59475;52.464;13.590;2023-07-30T15:22:55;19.63;77.38
71627;DHT22;59475;52.464;13.590;2023-07-30T15:25:20;19.53;78.47
71627;DHT22;59475;52.464;13.590;2023-07-30T15:27:46;19.44;80.02
71627;DHT22;59475;52.464;13.590;2023-07-30T15:30:11;19.40;78.88
71627;DHT22;59475;52.464;13.590;2023-07-30T15:32:44;19.41;80.39
71627;DHT22;59475;52.464;13.590;2023-07-30T15:35:10;19.47;80.76
71627;DHT22;59475;52.464;13.590;2023-07-30T15:37:37;19.57;80.38
71627;DHT22;59475;52.464;13.590;2023-07-30T15:40:03;19.58;80.01
71627;DHT22;59475;52.464;13.590;2023-07-30T15:42:28;19.70;79.98
71627;DHT22;59475;52.464;13.590;2023-07-30T15:44:54;19.77;80.37
71627;DHT22;59475;52.464;13.590;2023-07-30T15:50:41;19.79;79.02
71627;DHT22;59475;52.464;13.590;2023-07-30T15:53:06;19.75;79.73
71627;DHT22;59475;52.464;13.590;2023-07-30T15:58:53;19.72;78.98
71627;DHT22;59475;52.464;13.590;2023-07-30T16:04:40;19.92;77.52
71627;DHT22;59475;52.464;13.590;2023-07-30T16:07:06;20.02;78.00
71627;DHT22;59475;52.464;13.590;2023-07-30T16:12:52;20.22;76.28
71627;DHT22;59475;52.464;13.590;2023-07-30T16:18:40;20.51;76.27
71627;DHT22;59475;52.464;13.590;2023-07-30T16:24:29;20.47;74.48
71627;DHT22;59475;52.464;13.590;2023-07-30T16:26:54;20.53;73.80
71627;DHT22;59475;52.464;13.590;2023-07-30T16:29:19;20.56;73.67
71627;DHT22;59475;52.464;13.590;2023-07-30T16:31:45;20.61;73.18
71627;DHT22;59475;52.464;13.590;2023-07-30T16:34:10;20.64;72.91
71627;DHT22;59475;52.464;13.590;2023-07-30T16:36:35;20.61;73.24
71627;DHT22;59475;52.464;13.590;2023-07-30T16:39:01;20.50;72.54
71627;DHT22;59475;52.464;13.590;2023-07-30T16:44:48;20.46;73.08
71627;DHT22;59475;52.464;13.590;2023-07-30T16:47:14;20.57;72.73
71627;DHT22;59475;52.464;13.590;2023-07-30T16:49:40;20.50;73.60
71627;DHT22;59475;52.464;13.590;2023-07-30T16:52:05;20.51;73.82
71627;DHT22;59475;52.464;13.590;2023-07-30T16:57:52;20.40;73.40
71627;DHT22;59475;52.464;13.590;2023-07-30T17:00:18;20.47;73.16
71627;DHT22;59475;52.464;13.590;2023-07-30T17:02:43;20.34;73.57
71627;DHT22;59475;52.464;13.590;2023-07-30T17:05:09;20.27;72.70
71627;DHT22;59475;52.464;13.590;2023-07-30T17:07:34;20.34;73.39
71627;DHT22;59475;52.464;13.590;2023-07-30T17:10:00;20.37;73.18
71627;DHT22;59475;52.464;13.590;2023-07-30T17:12:25;20.40;72.67
71627;DHT22;59475;52.464;13.590;2023-07-30T17:14:50;20.39;73.56
71627;DHT22;59475;52.464;13.590;2023-07-30T17:17:16;20.36;73.22
71627;DHT22;59475;52.464;13.590;2023-07-30T17:19:44;20.29;72.89
71627;DHT22;59475;52.464;13.590;2023-07-30T17:22:09;20.18;72.75
71627;DHT22;59475;52.464;13.590;2023-07-30T17:24:35;20.18;72.47
71627;DHT22;59475;52.464;13.590;2023-07-30T17:27:01;20.26;73.10
71627;DHT22;59475;52.464;13.590;2023-07-30T17:29:26;20.36;73.10